Disclaimer

Please do not use the information listed here in-flight or in-navigation, as they are not provided to us by the airports but are provided by volunteers, so they might be outdated.

Search


Regions


Airport information page

Radio informations:
Tower (TWR) - 122.1 MHz
Approach (APP) - 122.1 MHz

Airport informations:
Latitude: 34° 25' 19.28" N
Longitude: 008° 49' 21.01" E
Elevation: 1060 feet - 323 meters
Operating hours: 24 hour operations
Operating agency: Military-civil joint use airport
Timezone: UTC+1(+2DT) - Dates notified by NOTAM
Fuel: N/A

Runway information:
05/23 - 9514 x 148 feet< - >2900 x 45 meters

Recent METARs:
DTTF 131500Z 07011KT 9999 SCT026 21/14 Q1023 NOSIG
DTTF 131600Z 07009KT 9999 FEW026TCU 21/14 Q1023 NOSIG
DTTF 131600Z 07009KT 9999 FEW026TCU 21/14 Q1023 NOSIG

Airport on the map: